createdAt,value
2023-03-29T00:00:38.716Z,52.70
2023-03-29T00:01:42.531Z,53.10
2023-03-29T00:02:48.218Z,53.00
2023-03-29T00:03:54.048Z,53.30
2023-03-29T00:04:57.013Z,53.30
2023-03-29T00:06:04.008Z,52.90
2023-03-29T00:07:06.054Z,52.60
2023-03-29T00:08:14.259Z,51.80
2023-03-29T00:09:18.218Z,51.70
2023-03-29T00:10:24.067Z,52.30
2023-03-29T00:11:27.211Z,52.50
2023-03-29T00:12:30.524Z,52.40
2023-03-29T00:13:33.589Z,51.60
2023-03-29T00:14:35.627Z,51.70
2023-03-29T00:15:38.819Z,51.10
2023-03-29T00:16:41.368Z,51.20
2023-03-29T00:17:44.440Z,51.50
2023-03-29T00:18:46.532Z,51.90
2023-03-29T00:19:50.960Z,51.90
2023-03-29T00:20:56.556Z,51.90
2023-03-29T00:21:59.538Z,52.10
2023-03-29T00:23:01.617Z,52.00
2023-03-29T00:24:04.866Z,52.30
2023-03-29T00:25:07.591Z,52.10
2023-03-29T00:26:10.853Z,51.40
2023-03-29T00:27:12.927Z,51.20
2023-03-29T00:28:16.171Z,51.70
2023-03-29T00:29:18.308Z,51.80
2023-03-29T00:30:21.573Z,51.70
2023-03-29T00:31:23.663Z,51.80
2023-03-29T00:32:27.005Z,51.60
2023-03-29T00:33:29.131Z,51.40
2023-03-29T00:34:32.132Z,51.10
2023-03-29T00:35:38.034Z,51.10
2023-03-29T00:36:41.381Z,51.00
2023-03-29T00:37:43.394Z,51.00
2023-03-29T00:38:46.742Z,51.00
2023-03-29T00:39:48.782Z,51.30
2023-03-29T00:40:51.758Z,51.10
2023-03-29T00:41:54.297Z,50.70
2023-03-29T00:42:58.120Z,51.00
2023-03-29T00:44:05.373Z,51.40
2023-03-29T00:45:19.389Z,51.30
2023-03-29T00:46:21.927Z,51.30
2023-03-29T00:47:28.742Z,51.20
2023-03-29T00:48:31.284Z,51.40
2023-03-29T00:49:36.028Z,51.40
2023-03-29T00:50:42.925Z,51.80
2023-03-29T00:51:48.131Z,51.90
2023-03-29T00:52:53.670Z,52.10
2023-03-29T00:54:02.743Z,52.10
2023-03-29T00:55:11.416Z,51.20
2023-03-29T00:56:18.156Z,51.50
2023-03-29T00:57:22.660Z,51.70
2023-03-29T00:58:31.367Z,52.30
2023-03-29T00:59:35.720Z,52.50
2023-03-29T01:00:45.516Z,52.10
2023-03-29T01:01:54.387Z,52.30
2023-03-29T01:03:00.839Z,51.40
2023-03-29T01:04:08.487Z,53.10
2023-03-29T01:05:16.301Z,52.90
2023-03-29T01:06:24.814Z,52.50
2023-03-29T01:07:32.137Z,52.80
2023-03-29T01:08:40.030Z,52.30
2023-03-29T01:09:46.187Z,52.40
2023-03-29T01:10:54.109Z,52.30
2023-03-29T01:11:58.769Z,52.50
2023-03-29T01:13:07.542Z,52.80
2023-03-29T01:14:15.306Z,52.60
2023-03-29T01:15:21.210Z,52.50
2023-03-29T01:16:25.750Z,52.00
2023-03-29T01:17:31.470Z,51.70
2023-03-29T01:18:34.815Z,52.20
2023-03-29T01:19:42.211Z,51.70
2023-03-29T01:21:05.116Z,52.10
2023-03-29T01:22:19.203Z,52.20
2023-03-29T01:23:46.486Z,52.30
2023-03-29T01:25:02.201Z,52.60
2023-03-29T01:26:15.870Z,53.00
2023-03-29T01:27:35.909Z,53.30
2023-03-29T01:28:43.782Z,53.00
2023-03-29T01:29:51.667Z,53.40
2023-03-29T01:31:01.772Z,53.20
2023-03-29T01:32:09.806Z,51.20
2023-03-29T01:33:21.126Z,52.10
2023-03-29T01:34:30.237Z,52.70
2023-03-29T01:35:39.192Z,53.30
2023-03-29T01:36:49.380Z,53.00
2023-03-29T01:37:59.578Z,52.80
2023-03-29T01:39:05.205Z,53.10
2023-03-29T01:40:09.435Z,52.90
2023-03-29T01:41:12.409Z,52.70
2023-03-29T01:42:27.911Z,53.00
2023-03-29T01:43:36.182Z,52.90
2023-03-29T01:44:47.940Z,52.10
2023-03-29T01:45:56.317Z,51.80
2023-03-29T01:47:08.739Z,51.10
2023-03-29T01:48:18.013Z,51.00
2023-03-29T01:49:25.555Z,51.00
2023-03-29T01:50:37.261Z,50.50
2023-03-29T01:51:42.439Z,50.80
2023-03-29T01:52:51.288Z,52.00
2023-03-29T01:54:00.721Z,52.10
2023-03-29T01:55:11.237Z,51.90
2023-03-29T01:56:17.100Z,52.30
2023-03-29T01:57:22.472Z,51.20
2023-03-29T01:58:33.623Z,50.30
2023-03-29T01:59:41.496Z,49.50
2023-03-29T02:00:45.245Z,49.20
2023-03-29T02:01:52.968Z,49.00
2023-03-29T02:03:00.265Z,48.70
2023-03-29T02:04:07.837Z,46.80
2023-03-29T02:05:12.966Z,45.60
2023-03-29T02:06:20.518Z,43.80
2023-03-29T02:07:30.516Z,43.30
2023-03-29T02:08:33.622Z,42.90
2023-03-29T02:09:37.848Z,41.60
2023-03-29T02:10:41.293Z,41.90
2023-03-29T02:11:47.439Z,42.00
2023-03-29T02:12:50.945Z,41.50
2023-03-29T02:13:53.301Z,40.60
2023-03-29T02:14:58.693Z,39.70
2023-03-29T02:16:03.115Z,39.20
2023-03-29T02:17:20.207Z,38.90
2023-03-29T02:18:23.569Z,39.00
2023-03-29T02:19:27.987Z,39.10
2023-03-29T02:20:32.341Z,38.60
2023-03-29T02:21:41.421Z,37.90
2023-03-29T02:22:52.183Z,37.40
2023-03-29T02:23:57.736Z,37.00
2023-03-29T02:25:03.061Z,36.80
2023-03-29T02:26:08.591Z,36.80
2023-03-29T02:27:11.029Z,36.80
2023-03-29T02:28:15.056Z,36.50
2023-03-29T02:29:17.477Z,36.30
2023-03-29T02:30:22.412Z,35.70
2023-03-29T02:31:29.397Z,35.10
2023-03-29T02:32:39.699Z,35.50
2023-03-29T02:33:47.243Z,35.20
2023-03-29T02:34:56.587Z,35.50
2023-03-29T02:36:03.704Z,35.00
2023-03-29T02:37:11.797Z,35.10
2023-03-29T02:38:14.720Z,34.90
2023-03-29T02:39:19.600Z,35.50
2023-03-29T02:40:23.571Z,35.30
2023-03-29T02:41:27.654Z,35.50
2023-03-29T02:42:31.346Z,35.10
2023-03-29T02:43:35.776Z,35.20
2023-03-29T02:44:40.733Z,34.90
2023-03-29T02:45:45.957Z,35.00
2023-03-29T02:46:50.789Z,34.90
2023-03-29T02:47:57.402Z,34.90
2023-03-29T02:49:00.847Z,35.00
2023-03-29T02:50:03.996Z,34.70
2023-03-29T02:51:12.206Z,34.90
2023-03-29T02:52:18.068Z,35.00
2023-03-29T02:53:24.460Z,34.70
2023-03-29T02:54:31.521Z,34.60
2023-03-29T02:55:34.957Z,34.70
2023-03-29T02:56:44.988Z,34.70
2023-03-29T02:57:47.167Z,34.70
2023-03-29T02:58:50.253Z,35.20
2023-03-29T02:59:52.774Z,34.90
2023-03-29T03:00:59.783Z,35.00
2023-03-29T03:02:03.205Z,34.80
2023-03-29T03:03:07.919Z,34.40
2023-03-29T03:04:11.038Z,35.00
2023-03-29T03:05:14.256Z,34.70
2023-03-29T03:06:18.272Z,35.20
2023-03-29T03:07:20.965Z,35.20
2023-03-29T03:08:25.395Z,34.70
2023-03-29T03:09:27.570Z,35.10
2023-03-29T03:10:30.738Z,35.30
2023-03-29T03:11:33.752Z,35.50
2023-03-29T03:12:38.066Z,35.20
2023-03-29T03:13:40.369Z,35.30
2023-03-29T03:14:44.621Z,35.10
2023-03-29T03:15:49.164Z,35.30
2023-03-29T03:16:55.087Z,35.20
2023-03-29T03:17:57.322Z,35.50
2023-03-29T03:19:00.904Z,35.20
2023-03-29T03:20:05.505Z,35.60
2023-03-29T03:21:09.597Z,35.20
2023-03-29T03:22:12.929Z,35.50
2023-03-29T03:23:16.759Z,35.30
2023-03-29T03:24:18.922Z,35.60
2023-03-29T03:25:22.414Z,35.80
2023-03-29T03:26:29.863Z,35.80
2023-03-29T03:27:33.875Z,35.50
2023-03-29T03:28:35.969Z,35.70
2023-03-29T03:29:42.198Z,35.90
2023-03-29T03:31:03.832Z,36.00
2023-03-29T03:32:27.133Z,36.30
2023-03-29T03:33:48.919Z,36.40
2023-03-29T03:35:09.941Z,35.90
2023-03-29T03:36:12.109Z,36.20
2023-03-29T03:37:18.118Z,36.40
2023-03-29T03:38:20.143Z,36.40
2023-03-29T03:39:31.080Z,36.50
2023-03-29T03:40:33.311Z,36.40
2023-03-29T03:41:36.753Z,36.90
2023-03-29T03:42:39.157Z,37.00
2023-03-29T03:43:43.861Z,36.70
2023-03-29T03:44:46.375Z,36.60
2023-03-29T03:46:15.263Z,36.50
2023-03-29T03:47:18.143Z,36.30
2023-03-29T03:48:23.665Z,36.40
2023-03-29T03:49:34.118Z,36.60
2023-03-29T03:50:38.289Z,36.20
2023-03-29T03:51:42.307Z,36.10
2023-03-29T03:52:45.761Z,36.20
2023-03-29T03:53:47.998Z,36.50
2023-03-29T03:54:51.026Z,36.50
2023-03-29T03:56:13.529Z,36.50
2023-03-29T03:57:52.550Z,36.20
2023-03-29T03:58:56.699Z,36.30
2023-03-29T03:59:59.936Z,36.40
2023-03-29T04:01:14.764Z,36.70
2023-03-29T04:02:28.287Z,36.30
2023-03-29T04:03:32.119Z,36.30
2023-03-29T04:04:35.731Z,36.20
2023-03-29T04:05:43.426Z,36.70
2023-03-29T04:06:47.200Z,36.70
2023-03-29T04:08:03.179Z,36.90
2023-03-29T04:09:38.829Z,36.70
2023-03-29T04:11:01.285Z,36.90
2023-03-29T04:12:11.887Z,37.10
2023-03-29T04:13:17.137Z,37.10
2023-03-29T04:14:56.096Z,36.80
2023-03-29T04:16:01.765Z,37.10
2023-03-29T04:17:05.657Z,36.90
2023-03-29T04:18:27.680Z,36.70
2023-03-29T04:19:34.021Z,37.10
2023-03-29T04:20:37.184Z,36.90
2023-03-29T04:21:39.570Z,37.00
2023-03-29T04:22:42.641Z,37.30
2023-03-29T04:23:46.609Z,36.90
2023-03-29T04:24:49.640Z,37.10
2023-03-29T04:26:12.089Z,37.20
2023-03-29T04:27:21.728Z,37.00
2023-03-29T04:28:24.871Z,37.10
2023-03-29T04:29:38.970Z,37.10
2023-03-29T04:30:53.477Z,37.10
2023-03-29T04:32:09.899Z,37.30
2023-03-29T04:33:21.058Z,37.60
2023-03-29T04:34:29.471Z,37.60
2023-03-29T04:35:34.889Z,37.60
2023-03-29T04:36:38.662Z,37.60
2023-03-29T04:37:48.291Z,37.50
2023-03-29T04:38:52.356Z,37.70
2023-03-29T04:39:55.786Z,37.60
2023-03-29T04:41:01.407Z,37.70
2023-03-29T04:42:37.342Z,37.60
2023-03-29T04:43:41.365Z,37.80
2023-03-29T04:44:53.218Z,37.70
2023-03-29T04:46:07.333Z,37.90
2023-03-29T04:47:30.154Z,37.60
2023-03-29T04:48:37.550Z,37.70
2023-03-29T04:49:41.503Z,37.50
2023-03-29T04:50:54.353Z,37.50
2023-03-29T04:51:57.090Z,37.70
2023-03-29T04:53:03.944Z,37.40
2023-03-29T04:54:07.631Z,37.60
2023-03-29T04:55:36.306Z,37.70
2023-03-29T04:56:39.389Z,37.70
2023-03-29T04:58:01.183Z,37.70
2023-03-29T04:59:07.132Z,37.70
2023-03-29T05:00:15.068Z,37.30
2023-03-29T05:01:45.768Z,37.40
2023-03-29T05:02:48.221Z,37.00
2023-03-29T05:03:52.450Z,37.40
2023-03-29T05:05:00.202Z,37.30
2023-03-29T05:06:07.354Z,37.40
2023-03-29T05:07:11.729Z,37.30
2023-03-29T05:08:14.765Z,37.10
2023-03-29T05:09:40.735Z,37.30
2023-03-29T05:10:46.245Z,37.50
2023-03-29T05:11:49.569Z,37.70
2023-03-29T05:12:54.020Z,37.60
2023-03-29T05:14:02.245Z,37.60
2023-03-29T05:15:09.582Z,37.40
2023-03-29T05:16:11.879Z,37.30
2023-03-29T05:17:15.518Z,37.70
2023-03-29T05:18:17.963Z,37.60
2023-03-29T05:19:21.846Z,37.50
2023-03-29T05:20:24.958Z,37.30
2023-03-29T05:21:29.573Z,37.80
2023-03-29T05:22:34.151Z,37.80
2023-03-29T05:23:37.465Z,37.60
2023-03-29T05:25:03.450Z,38.00
2023-03-29T05:26:09.883Z,38.00
2023-03-29T05:27:13.934Z,38.10
2023-03-29T05:28:18.339Z,38.20
2023-03-29T05:29:21.666Z,38.40
2023-03-29T05:30:30.666Z,38.50
2023-03-29T05:31:39.910Z,38.80
2023-03-29T05:32:44.118Z,38.60
2023-03-29T05:33:50.753Z,38.70
2023-03-29T05:34:54.032Z,39.00
2023-03-29T05:36:00.727Z,39.20
2023-03-29T05:37:06.069Z,39.10
2023-03-29T05:38:18.866Z,39.00
2023-03-29T05:39:22.146Z,39.50
2023-03-29T05:40:26.173Z,39.50
2023-03-29T05:41:48.089Z,39.70
2023-03-29T05:43:18.025Z,39.60
2023-03-29T05:44:21.550Z,39.70
2023-03-29T05:45:30.280Z,39.70
2023-03-29T05:46:32.650Z,39.60
2023-03-29T05:47:39.028Z,39.30
2023-03-29T05:48:41.572Z,39.60
2023-03-29T05:49:44.809Z,39.60
2023-03-29T05:50:51.394Z,39.80
2023-03-29T05:51:56.942Z,39.60
2023-03-29T05:53:02.040Z,39.60
2023-03-29T05:54:05.236Z,39.50
2023-03-29T05:55:10.364Z,39.40
2023-03-29T05:56:16.038Z,39.50
2023-03-29T05:57:18.557Z,39.50
2023-03-29T05:58:21.868Z,39.50
2023-03-29T05:59:28.196Z,39.50
2023-03-29T06:00:34.326Z,39.60
2023-03-29T06:01:50.368Z,39.80
2023-03-29T06:03:03.691Z,39.70
2023-03-29T06:04:18.041Z,40.30
2023-03-29T06:05:30.621Z,39.80
2023-03-29T06:06:35.733Z,39.70
2023-03-29T06:07:38.410Z,39.90
2023-03-29T06:09:06.891Z,39.90
2023-03-29T06:10:17.886Z,39.80
2023-03-29T06:11:26.349Z,40.10
2023-03-29T06:12:49.437Z,39.80
2023-03-29T06:13:52.939Z,39.60
2023-03-29T06:14:58.231Z,39.50
2023-03-29T06:16:13.433Z,38.90
2023-03-29T06:17:16.522Z,39.00
2023-03-29T06:18:18.951Z,38.20
2023-03-29T06:19:22.704Z,38.10
2023-03-29T06:20:26.335Z,38.30
2023-03-29T06:21:33.417Z,38.20
2023-03-29T06:22:37.614Z,38.40
2023-03-29T06:23:41.778Z,38.30
2023-03-29T06:24:46.260Z,38.00
2023-03-29T06:26:00.071Z,37.90
2023-03-29T06:27:03.256Z,37.70
2023-03-29T06:28:06.150Z,37.80
2023-03-29T06:29:11.897Z,37.70
2023-03-29T06:30:17.215Z,37.80
2023-03-29T06:31:24.753Z,37.60
2023-03-29T06:32:28.530Z,38.10
2023-03-29T06:33:38.701Z,37.70
2023-03-29T06:34:54.442Z,37.70
2023-03-29T06:36:09.815Z,37.40
2023-03-29T06:37:13.046Z,37.40
2023-03-29T06:38:16.536Z,37.20
2023-03-29T06:39:38.698Z,37.20
2023-03-29T06:41:04.158Z,37.30
2023-03-29T06:42:21.814Z,37.30
2023-03-29T06:43:57.792Z,37.20
2023-03-29T06:45:08.956Z,37.20
2023-03-29T06:46:13.501Z,36.90
2023-03-29T06:47:35.061Z,36.50
2023-03-29T06:48:38.181Z,36.60
2023-03-29T06:49:40.571Z,36.30
2023-03-29T06:51:02.924Z,36.80
2023-03-29T06:52:07.455Z,36.70
2023-03-29T06:53:10.592Z,36.80
2023-03-29T06:54:15.490Z,36.90
2023-03-29T06:55:27.487Z,36.40
2023-03-29T06:56:34.180Z,36.30
2023-03-29T06:57:40.965Z,36.40
2023-03-29T06:58:45.000Z,36.00
2023-03-29T07:00:09.901Z,36.30
2023-03-29T07:01:35.728Z,36.10
2023-03-29T07:02:50.464Z,36.10
2023-03-29T07:03:52.696Z,36.30
2023-03-29T07:05:01.347Z,36.30
2023-03-29T07:06:11.187Z,36.40
2023-03-29T07:07:20.855Z,36.40
2023-03-29T07:08:31.425Z,36.90
2023-03-29T07:09:39.929Z,36.70
2023-03-29T07:11:13.733Z,36.50
2023-03-29T07:12:26.410Z,36.30
2023-03-29T07:13:34.042Z,36.40
2023-03-29T07:14:39.807Z,36.60
2023-03-29T07:15:44.948Z,36.00
2023-03-29T07:16:55.109Z,36.10
2023-03-29T07:18:05.478Z,36.00
2023-03-29T07:19:10.698Z,36.00
2023-03-29T07:20:33.668Z,35.80
2023-03-29T07:21:42.052Z,36.30
2023-03-29T07:22:47.090Z,35.90
2023-03-29T07:23:49.558Z,36.50
2023-03-29T07:24:53.218Z,36.10
2023-03-29T07:25:55.800Z,36.00
2023-03-29T07:27:04.253Z,36.20
2023-03-29T07:28:09.104Z,35.90
2023-03-29T07:29:12.468Z,35.90
2023-03-29T07:30:18.546Z,36.00
2023-03-29T07:31:21.822Z,36.10
2023-03-29T07:32:30.999Z,36.10
2023-03-29T07:33:49.518Z,36.10
2023-03-29T07:34:51.796Z,36.00
2023-03-29T07:36:02.030Z,35.90
2023-03-29T07:37:07.081Z,35.70
2023-03-29T07:38:10.455Z,35.50
2023-03-29T07:39:17.648Z,36.00
2023-03-29T07:40:34.185Z,35.80
2023-03-29T07:41:58.198Z,36.00
2023-03-29T07:43:07.266Z,35.90
2023-03-29T07:44:12.663Z,35.70
2023-03-29T07:45:17.094Z,35.40
2023-03-29T07:46:35.662Z,35.00
2023-03-29T07:47:38.357Z,35.10
2023-03-29T07:48:41.378Z,35.80
2023-03-29T07:49:45.897Z,35.10
2023-03-29T07:50:48.915Z,35.00
2023-03-29T07:51:54.906Z,35.00
2023-03-29T07:52:58.070Z,34.70
2023-03-29T07:54:01.286Z,35.20
2023-03-29T07:55:24.631Z,35.40
2023-03-29T07:56:40.487Z,34.70
2023-03-29T07:57:50.493Z,34.60
2023-03-29T07:58:53.767Z,34.60
2023-03-29T07:59:58.825Z,34.60
2023-03-29T08:01:08.338Z,34.60
2023-03-29T08:02:30.208Z,34.70
2023-03-29T08:03:38.001Z,35.10
2023-03-29T08:04:42.862Z,35.20
2023-03-29T08:05:51.995Z,35.00
2023-03-29T08:06:54.274Z,34.70
2023-03-29T08:08:00.924Z,34.40
2023-03-29T08:09:27.274Z,34.70
2023-03-29T08:10:30.384Z,35.00
2023-03-29T08:11:51.171Z,35.00
2023-03-29T08:13:00.938Z,34.10
2023-03-29T08:14:15.042Z,33.60
2023-03-29T08:15:30.626Z,33.40
2023-03-29T08:16:34.059Z,33.60
2023-03-29T08:17:44.089Z,33.80
2023-03-29T08:18:47.103Z,33.20
2023-03-29T08:19:51.442Z,33.30
2023-03-29T08:20:59.913Z,34.00
2023-03-29T08:22:02.730Z,33.80
2023-03-29T08:23:16.965Z,33.40
2023-03-29T08:24:46.317Z,33.00
2023-03-29T08:25:49.390Z,32.80
2023-03-29T08:26:51.531Z,33.10
2023-03-29T08:27:56.643Z,32.80
2023-03-29T08:29:15.188Z,33.00
2023-03-29T08:30:17.342Z,32.50
2023-03-29T08:31:21.942Z,31.90
2023-03-29T08:32:24.204Z,32.00
2023-03-29T08:33:27.718Z,31.80
2023-03-29T08:34:46.807Z,31.80
2023-03-29T08:35:57.675Z,32.00
2023-03-29T08:37:04.197Z,31.70
2023-03-29T08:38:17.513Z,31.20
2023-03-29T08:39:20.807Z,31.50
2023-03-29T08:40:33.476Z,31.50
2023-03-29T08:42:08.829Z,31.60
2023-03-29T08:43:21.167Z,32.20
2023-03-29T08:44:59.091Z,31.90
2023-03-29T08:46:12.694Z,32.20
2023-03-29T08:47:24.433Z,32.00
2023-03-29T08:48:31.040Z,31.80
2023-03-29T08:49:38.374Z,31.50
2023-03-29T08:50:47.884Z,31.30
2023-03-29T08:51:56.678Z,31.50
2023-03-29T08:53:03.859Z,32.20
2023-03-29T08:54:28.813Z,32.20
2023-03-29T08:55:48.051Z,32.10
2023-03-29T08:57:22.072Z,32.30
2023-03-29T08:58:35.050Z,32.00
2023-03-29T08:59:39.545Z,31.90
2023-03-29T09:00:49.104Z,31.80
2023-03-29T09:01:55.287Z,32.20
2023-03-29T09:03:02.356Z,32.30
2023-03-29T09:04:09.850Z,32.20
2023-03-29T09:05:41.935Z,32.50
2023-03-29T09:06:54.050Z,31.90
2023-03-29T09:08:00.991Z,32.50
2023-03-29T09:09:03.238Z,32.10
2023-03-29T09:10:10.050Z,32.20
2023-03-29T09:11:31.267Z,32.60
2023-03-29T09:12:45.606Z,32.30
2023-03-29T09:14:01.408Z,32.40
2023-03-29T09:15:12.615Z,32.40
2023-03-29T09:16:28.902Z,33.10
2023-03-29T09:17:43.414Z,32.40
2023-03-29T09:19:02.168Z,31.70
2023-03-29T09:20:14.287Z,32.00
2023-03-29T09:21:23.438Z,32.00
2023-03-29T09:22:36.983Z,32.30
2023-03-29T09:24:13.658Z,32.00
2023-03-29T09:25:32.935Z,32.00
2023-03-29T09:26:42.702Z,31.90
2023-03-29T09:27:59.416Z,31.80
2023-03-29T09:29:30.419Z,31.90
2023-03-29T09:30:36.445Z,31.80
2023-03-29T09:31:45.323Z,31.60
2023-03-29T09:32:53.976Z,31.50
2023-03-29T09:34:09.659Z,31.70
2023-03-29T09:35:31.990Z,31.50
2023-03-29T09:36:44.920Z,31.50
2023-03-29T09:37:49.999Z,31.70
2023-03-29T09:38:54.373Z,31.70
2023-03-29T09:39:59.070Z,31.10
2023-03-29T09:41:23.748Z,32.00
2023-03-29T09:42:30.545Z,31.50
2023-03-29T09:43:37.107Z,31.80
2023-03-29T09:44:48.690Z,31.50
2023-03-29T09:46:01.087Z,31.80
2023-03-29T09:47:09.450Z,31.90
2023-03-29T09:48:15.769Z,31.60
2023-03-29T09:49:29.762Z,31.80
2023-03-29T09:50:38.011Z,31.70
2023-03-29T09:51:44.417Z,31.40
2023-03-29T09:52:49.410Z,31.70
2023-03-29T09:53:59.158Z,31.70
2023-03-29T09:55:18.551Z,31.70
2023-03-29T09:56:43.759Z,31.00
2023-03-29T09:57:50.160Z,31.90
2023-03-29T09:58:54.541Z,31.60
2023-03-29T09:59:58.947Z,32.00
2023-03-29T10:01:05.751Z,31.90
2023-03-29T10:02:11.893Z,32.10
2023-03-29T10:03:19.747Z,32.40
2023-03-29T10:04:29.320Z,32.60
2023-03-29T10:05:37.822Z,32.70
2023-03-29T10:06:49.142Z,32.70
2023-03-29T10:07:55.811Z,32.90
2023-03-29T10:08:59.621Z,32.90
2023-03-29T10:10:10.555Z,33.20
2023-03-29T10:11:17.700Z,33.30
2023-03-29T10:12:21.685Z,33.00
2023-03-29T10:13:30.621Z,33.40
2023-03-29T10:14:37.154Z,33.60
2023-03-29T10:15:39.374Z,33.10
2023-03-29T10:16:46.125Z,33.80
2023-03-29T10:17:49.510Z,34.20
2023-03-29T10:18:54.578Z,34.60
2023-03-29T10:20:04.148Z,34.70
2023-03-29T10:21:08.332Z,34.50
2023-03-29T10:22:19.148Z,34.70
2023-03-29T10:23:22.107Z,34.40
2023-03-29T10:24:27.205Z,34.40
2023-03-29T10:25:32.849Z,34.60
2023-03-29T10:26:39.035Z,34.60
2023-03-29T10:27:44.310Z,34.20
2023-03-29T10:28:47.486Z,34.50
2023-03-29T10:29:51.809Z,34.40
2023-03-29T10:30:57.447Z,34.60
2023-03-29T10:32:00.731Z,34.90
2023-03-29T10:33:03.933Z,34.80
2023-03-29T10:34:08.090Z,34.20
2023-03-29T10:35:24.889Z,34.60
2023-03-29T10:36:28.924Z,34.90
2023-03-29T10:37:31.847Z,34.90
2023-03-29T10:38:37.547Z,35.00
2023-03-29T10:39:40.373Z,34.70
2023-03-29T10:40:45.233Z,35.20
2023-03-29T10:41:52.492Z,35.20
2023-03-29T10:43:00.293Z,35.10
2023-03-29T10:44:03.969Z,35.30
2023-03-29T10:45:21.623Z,34.50
2023-03-29T10:46:29.900Z,35.00
2023-03-29T10:47:34.423Z,34.80
2023-03-29T10:48:37.595Z,34.00
2023-03-29T10:49:42.282Z,33.90
2023-03-29T10:50:50.750Z,33.80
2023-03-29T10:51:53.180Z,34.10
2023-03-29T10:52:56.534Z,33.60
2023-03-29T10:53:59.379Z,33.60
2023-03-29T10:55:02.561Z,32.80
2023-03-29T10:56:30.100Z,32.70
2023-03-29T10:57:44.319Z,32.60
2023-03-29T10:59:03.357Z,32.90
2023-03-29T11:00:18.291Z,32.70
2023-03-29T11:01:26.449Z,32.80
2023-03-29T11:02:54.252Z,32.60
2023-03-29T11:04:17.294Z,32.40
2023-03-29T11:05:33.269Z,32.40
2023-03-29T11:06:40.987Z,32.30
2023-03-29T11:07:52.429Z,32.20
2023-03-29T11:08:58.407Z,31.80
2023-03-29T11:10:20.506Z,31.80
2023-03-29T11:11:48.078Z,32.20
2023-03-29T11:12:57.934Z,32.50
2023-03-29T11:14:14.128Z,32.20
2023-03-29T11:15:37.837Z,32.10
2023-03-29T11:16:46.022Z,32.80
2023-03-29T11:18:00.607Z,32.30
2023-03-29T11:19:30.092Z,32.30
2023-03-29T11:20:40.903Z,32.00
2023-03-29T11:21:54.044Z,32.30
2023-03-29T11:23:05.836Z,32.00
2023-03-29T11:24:28.413Z,32.10
2023-03-29T11:25:41.809Z,32.20
2023-03-29T11:26:57.543Z,32.40
2023-03-29T11:28:08.367Z,32.00
2023-03-29T11:29:20.752Z,32.30
2023-03-29T11:30:29.078Z,31.00
2023-03-29T11:31:39.821Z,31.40
2023-03-29T11:32:51.221Z,31.20
2023-03-29T11:34:05.745Z,31.40
2023-03-29T11:35:22.053Z,31.30
2023-03-29T11:36:32.885Z,31.40
2023-03-29T11:37:43.099Z,31.80
2023-03-29T11:38:56.473Z,31.60
2023-03-29T11:40:12.077Z,31.90
2023-03-29T11:41:19.449Z,31.90
2023-03-29T11:42:25.637Z,31.00
2023-03-29T11:43:32.742Z,31.20
2023-03-29T11:44:37.020Z,31.70
2023-03-29T11:45:46.835Z,31.60
2023-03-29T11:46:55.560Z,31.30
2023-03-29T11:47:59.610Z,31.40
2023-03-29T11:49:06.880Z,31.30
2023-03-29T11:50:18.440Z,31.10
2023-03-29T11:51:25.809Z,31.60
2023-03-29T11:52:30.474Z,31.50
2023-03-29T11:53:40.769Z,31.50
2023-03-29T11:54:49.525Z,31.50
2023-03-29T11:55:53.892Z,31.90
2023-03-29T11:57:02.753Z,31.80
2023-03-29T11:58:12.185Z,31.90
2023-03-29T11:59:19.531Z,31.90
2023-03-29T12:00:28.295Z,31.80
2023-03-29T12:01:36.629Z,31.70
2023-03-29T12:02:42.357Z,31.60
2023-03-29T12:03:51.430Z,31.60
2023-03-29T12:04:58.216Z,31.50
2023-03-29T12:06:06.480Z,32.10
2023-03-29T12:07:15.271Z,32.00
2023-03-29T12:08:22.456Z,31.90
2023-03-29T12:09:34.136Z,31.40
2023-03-29T12:10:40.151Z,31.70
2023-03-29T12:11:48.864Z,31.60
2023-03-29T12:12:58.393Z,31.90
2023-03-29T12:14:05.842Z,32.00
2023-03-29T12:15:17.119Z,31.50
2023-03-29T12:16:24.783Z,31.80
2023-03-29T12:17:33.056Z,32.30
2023-03-29T12:18:40.921Z,31.90
2023-03-29T12:19:50.126Z,32.30
2023-03-29T12:20:57.902Z,32.20
2023-03-29T12:22:03.379Z,32.70
2023-03-29T12:23:11.601Z,33.00
2023-03-29T12:24:16.338Z,32.70
2023-03-29T12:25:24.704Z,32.40
2023-03-29T12:27:02.930Z,32.60
2023-03-29T12:28:24.268Z,32.60
2023-03-29T12:29:41.945Z,32.40
2023-03-29T12:30:54.880Z,32.00
2023-03-29T12:32:09.854Z,32.60
2023-03-29T12:33:54.628Z,31.60
2023-03-29T12:35:28.501Z,31.90
2023-03-29T12:37:08.076Z,32.40
2023-03-29T12:38:31.225Z,32.50
2023-03-29T12:39:53.541Z,32.50
2023-03-29T12:41:19.920Z,32.60
2023-03-29T12:42:49.258Z,32.20
2023-03-29T12:44:17.708Z,32.30
2023-03-29T12:45:35.486Z,32.30
2023-03-29T12:46:37.601Z,32.80
2023-03-29T12:47:45.490Z,32.60
2023-03-29T12:48:52.163Z,32.30
2023-03-29T12:49:57.333Z,32.60
2023-03-29T12:51:02.422Z,32.20
2023-03-29T12:52:11.892Z,32.50
2023-03-29T12:53:22.195Z,33.00
2023-03-29T12:54:28.403Z,33.00
2023-03-29T12:55:33.274Z,33.00
2023-03-29T12:56:42.053Z,33.00
2023-03-29T12:57:57.433Z,32.40
2023-03-29T12:59:17.151Z,32.60
2023-03-29T13:00:22.943Z,33.30
2023-03-29T13:01:29.587Z,33.30
2023-03-29T13:02:37.479Z,33.70
2023-03-29T13:03:49.565Z,33.90
2023-03-29T13:04:54.615Z,33.80
2023-03-29T13:06:01.412Z,33.00
2023-03-29T13:07:05.931Z,33.10
2023-03-29T13:08:21.577Z,32.90
2023-03-29T13:09:29.606Z,33.40
2023-03-29T13:10:39.488Z,33.40
2023-03-29T13:11:44.117Z,33.40
2023-03-29T13:12:47.652Z,34.00
2023-03-29T13:13:52.269Z,33.80
2023-03-29T13:14:56.776Z,33.50
2023-03-29T13:16:14.858Z,33.80
2023-03-29T13:17:31.809Z,33.40
2023-03-29T13:18:42.936Z,33.50
2023-03-29T13:19:49.979Z,33.50
2023-03-29T13:21:02.832Z,33.80
2023-03-29T13:22:18.000Z,33.60
2023-03-29T13:23:36.358Z,33.40
2023-03-29T13:24:51.781Z,33.90
2023-03-29T13:26:24.487Z,33.90
2023-03-29T13:27:39.657Z,34.00
2023-03-29T13:29:05.483Z,33.80
2023-03-29T13:30:24.728Z,33.60
2023-03-29T13:31:35.285Z,33.40
2023-03-29T13:32:49.003Z,33.20
2023-03-29T13:34:03.094Z,32.90
2023-03-29T13:35:18.221Z,33.10
2023-03-29T13:36:34.898Z,33.20
2023-03-29T13:37:44.229Z,33.30
2023-03-29T13:38:49.691Z,33.70
2023-03-29T13:39:55.420Z,32.50
2023-03-29T13:41:00.127Z,32.50
2023-03-29T13:42:20.113Z,33.00
2023-03-29T13:43:36.559Z,33.20
2023-03-29T13:44:44.782Z,32.90
2023-03-29T13:46:05.135Z,33.30
2023-03-29T13:47:17.345Z,33.40
2023-03-29T13:48:27.104Z,33.50
2023-03-29T13:49:34.102Z,33.30
2023-03-29T13:50:40.096Z,33.60
2023-03-29T13:51:47.615Z,33.60
2023-03-29T13:53:01.463Z,32.80
2023-03-29T13:54:14.045Z,33.20
2023-03-29T13:55:22.018Z,33.30
2023-03-29T13:56:27.143Z,33.10
2023-03-29T13:57:36.091Z,33.00
2023-03-29T13:58:46.448Z,33.00
2023-03-29T13:59:56.261Z,32.80
2023-03-29T14:01:07.798Z,32.30
2023-03-29T14:02:19.189Z,32.70
2023-03-29T14:03:26.298Z,32.50
2023-03-29T14:04:32.563Z,32.40
2023-03-29T14:05:38.418Z,32.80
2023-03-29T14:06:44.079Z,33.10
2023-03-29T14:07:51.161Z,33.20
2023-03-29T14:08:54.702Z,33.10
2023-03-29T14:10:01.134Z,33.40
2023-03-29T14:11:07.327Z,33.50
2023-03-29T14:12:13.651Z,33.10
2023-03-29T14:13:20.220Z,33.40
2023-03-29T14:14:28.002Z,33.40
2023-03-29T14:15:44.674Z,33.80
2023-03-29T14:16:47.554Z,33.30
2023-03-29T14:17:57.188Z,32.70
2023-03-29T14:19:04.285Z,32.50
2023-03-29T14:20:10.097Z,32.70
2023-03-29T14:21:14.825Z,32.60
2023-03-29T14:22:21.803Z,32.70
2023-03-29T14:23:27.032Z,33.00
2023-03-29T14:24:36.536Z,32.80
2023-03-29T14:25:41.459Z,32.50
2023-03-29T14:26:47.833Z,32.10
2023-03-29T14:27:50.875Z,32.20
2023-03-29T14:28:56.793Z,32.40
2023-03-29T14:30:05.008Z,32.70
2023-03-29T14:31:18.785Z,32.90
2023-03-29T14:32:29.802Z,32.60
2023-03-29T14:33:38.065Z,32.00
2023-03-29T14:34:41.610Z,32.10
2023-03-29T14:35:44.849Z,32.20
2023-03-29T14:36:48.930Z,32.20
2023-03-29T14:37:52.278Z,32.80
2023-03-29T14:39:01.201Z,33.00
2023-03-29T14:40:08.741Z,32.70
2023-03-29T14:41:11.864Z,32.50
2023-03-29T14:42:20.757Z,32.10
2023-03-29T14:43:24.230Z,31.70
2023-03-29T14:44:28.773Z,32.40
2023-03-29T14:45:33.396Z,32.40
2023-03-29T14:46:37.113Z,32.70
2023-03-29T14:47:40.451Z,33.00
2023-03-29T14:48:44.518Z,33.10
2023-03-29T14:49:47.214Z,33.10